createdAt,value
2017-05-29T00:01:17.485Z,0
2017-05-29T00:02:18.008Z,0
2017-05-29T00:03:17.949Z,0
2017-05-29T00:04:17.886Z,0
2017-05-29T00:05:17.521Z,0
2017-05-29T00:06:17.775Z,0
2017-05-29T00:07:17.706Z,0
2017-05-29T00:08:17.643Z,0
2017-05-29T00:09:17.576Z,0
2017-05-29T00:10:17.507Z,0
2017-05-29T00:11:17.442Z,4
2017-05-29T00:12:17.084Z,4
2017-05-29T00:13:17.327Z,4
2017-05-29T00:14:16.958Z,4
2017-05-29T00:15:16.895Z,4
2017-05-29T00:16:17.131Z,4
2017-05-29T00:17:16.466Z,4
2017-05-29T00:18:16.712Z,4
2017-05-29T00:19:16.641Z,0
2017-05-29T00:20:16.883Z,0
2017-05-29T00:21:16.541Z,0
2017-05-29T00:22:16.455Z,0
2017-05-29T00:23:16.395Z,0
2017-05-29T00:24:16.633Z,0
2017-05-29T00:25:16.269Z,0
2017-05-29T00:26:15.906Z,0
2017-05-29T00:27:15.846Z,0
2017-05-29T00:28:16.385Z,0
2017-05-29T00:29:16.021Z,0
2017-05-29T00:30:15.953Z,0
2017-05-29T00:31:15.890Z,0
2017-05-29T00:32:15.827Z,0
2017-05-29T00:33:15.768Z,0
2017-05-29T00:34:16.003Z,0
2017-05-29T00:35:15.342Z,0
2017-05-29T00:36:15.590Z,0
2017-05-29T00:37:15.519Z,0
2017-05-29T00:38:15.760Z,0
2017-05-29T00:39:15.093Z,0
2017-05-29T00:40:15.634Z,0
2017-05-29T00:41:15.268Z,0
2017-05-29T00:42:15.513Z,0
2017-05-29T00:43:15.147Z,0
2017-05-29T00:44:15.390Z,0
2017-05-29T00:45:15.325Z,0
2017-05-29T00:46:15.265Z,0
2017-05-29T00:47:15.202Z,0
2017-05-29T00:48:15.153Z,0
2017-05-29T00:49:14.784Z,0
2017-05-29T00:50:15.012Z,0
2017-05-29T00:51:14.346Z,0
2017-05-29T00:52:15.137Z,0
2017-05-29T00:53:14.519Z,0
2017-05-29T00:54:14.155Z,0
2017-05-29T00:55:14.398Z,0
2017-05-29T00:56:14.028Z,0
2017-05-29T00:57:14.578Z,0
2017-05-29T00:58:13.910Z,0
2017-05-29T00:59:14.145Z,0
2017-05-29T01:00:14.087Z,0
2017-05-29T01:01:14.025Z,0
2017-05-29T01:02:13.958Z,0
2017-05-29T01:03:14.205Z,0
2017-05-29T01:04:14.345Z,0
2017-05-29T01:05:14.076Z,0
2017-05-29T01:06:13.712Z,0
2017-05-29T01:07:13.948Z,0
2017-05-29T01:08:13.889Z,0
2017-05-29T01:09:13.523Z,0
2017-05-29T01:10:13.458Z,0
2017-05-29T01:11:13.703Z,0
2017-05-29T01:12:13.341Z,0
2017-05-29T01:13:13.583Z,0
2017-05-29T01:14:13.507Z,0
2017-05-29T01:15:13.448Z,0
2017-05-29T01:16:13.395Z,0
2017-05-29T01:17:13.333Z,0
2017-05-29T01:18:13.262Z,0
2017-05-29T01:19:13.200Z,0
2017-05-29T01:20:13.350Z,0
2017-05-29T01:21:13.080Z,0
2017-05-29T01:22:12.412Z,0
2017-05-29T01:23:12.954Z,0
2017-05-29T01:24:12.898Z,0
2017-05-29T01:25:12.543Z,0
2017-05-29T01:26:12.162Z,0
2017-05-29T01:27:12.709Z,0
2017-05-29T01:28:12.346Z,0
2017-05-29T01:29:12.579Z,0
2017-05-29T01:30:11.911Z,0
2017-05-29T01:31:11.851Z,0
2017-05-29T01:32:12.399Z,0
2017-05-29T01:33:12.334Z,0
2017-05-29T01:34:11.968Z,0
2017-05-29T01:35:11.601Z,0
2017-05-29T01:36:11.845Z,0
2017-05-29T01:37:12.080Z,0
2017-05-29T01:38:12.046Z,0
2017-05-29T01:39:11.959Z,0
2017-05-29T01:40:11.895Z,0
2017-05-29T01:41:11.832Z,0
2017-05-29T01:42:11.828Z,0
2017-05-29T01:43:11.718Z,0
2017-05-29T01:44:11.683Z,0
2017-05-29T01:45:11.596Z,0
2017-05-29T01:46:11.521Z,0
2017-05-29T01:47:11.155Z,0
2017-05-29T01:48:11.094Z,0
2017-05-29T01:49:11.333Z,0
2017-05-29T01:50:10.967Z,0
2017-05-29T01:51:11.207Z,0
2017-05-29T01:52:11.147Z,0
2017-05-29T01:53:10.484Z,0
2017-05-29T01:54:10.417Z,0
2017-05-29T01:55:10.655Z,0
2017-05-29T01:56:10.589Z,0
2017-05-29T01:57:10.829Z,0
2017-05-29T01:58:10.772Z,0
2017-05-29T01:59:10.712Z,0
2017-05-29T02:00:10.649Z,0
2017-05-29T02:01:09.977Z,0
2017-05-29T02:02:10.223Z,0
2017-05-29T02:03:10.469Z,0
2017-05-29T02:04:10.094Z,0
2017-05-29T02:05:10.040Z,0
2017-05-29T02:06:10.278Z,0
2017-05-29T02:07:09.908Z,0
2017-05-29T02:08:10.148Z,0
2017-05-29T02:09:10.088Z,0
2017-05-29T02:10:09.721Z,0
2017-05-29T02:11:09.961Z,0
2017-05-29T02:12:09.901Z,0
2017-05-29T02:13:09.834Z,0
2017-05-29T02:14:09.472Z,0
2017-05-29T02:15:09.708Z,0
2017-05-29T02:16:09.647Z,0
2017-05-29T02:17:09.585Z,0
2017-05-29T02:18:09.225Z,0
2017-05-29T02:19:09.458Z,0
2017-05-29T02:20:09.405Z,0
2017-05-29T02:21:09.336Z,0
2017-05-29T02:22:09.281Z,0
2017-05-29T02:23:09.213Z,0
2017-05-29T02:24:09.249Z,0
2017-05-29T02:25:09.084Z,0
2017-05-29T02:26:09.028Z,0
2017-05-29T02:27:08.373Z,0
2017-05-29T02:28:08.608Z,0
2017-05-29T02:29:08.785Z,0
2017-05-29T02:30:08.777Z,0
2017-05-29T02:31:08.711Z,0
2017-05-29T02:32:08.652Z,0
2017-05-29T02:33:08.599Z,0
2017-05-29T02:34:08.526Z,0
2017-05-29T02:35:07.880Z,0
2017-05-29T02:36:07.805Z,0
2017-05-29T02:37:08.337Z,0
2017-05-29T02:38:08.292Z,0
2017-05-29T02:39:07.908Z,0
2017-05-29T02:40:07.546Z,0
2017-05-29T02:41:08.093Z,0
2017-05-29T02:42:08.024Z,0
2017-05-29T02:43:07.676Z,0
2017-05-29T02:44:07.608Z,0
2017-05-29T02:45:07.838Z,0
2017-05-29T02:46:07.481Z,0
2017-05-29T02:47:07.715Z,4
2017-05-29T02:48:07.356Z,4
2017-05-29T02:49:07.300Z,4
2017-05-29T02:50:06.630Z,4
2017-05-29T02:51:07.177Z,4
2017-05-29T02:52:07.419Z,4
2017-05-29T02:53:07.389Z,4
2017-05-29T02:54:06.969Z,4
2017-05-29T02:55:07.016Z,4
2017-05-29T02:56:07.160Z,4
2017-05-29T02:57:07.098Z,4
2017-05-29T02:58:07.028Z,4
2017-05-29T02:59:06.729Z,4
2017-05-29T03:00:07.014Z,4
2017-05-29T03:01:06.841Z,4
2017-05-29T03:02:06.778Z,4
2017-05-29T03:03:06.714Z,4
2017-05-29T03:04:06.648Z,4
2017-05-29T03:05:06.548Z,4
2017-05-29T03:06:05.930Z,4
2017-05-29T03:07:05.860Z,4
2017-05-29T03:08:06.106Z,4
2017-05-29T03:09:06.343Z,4
2017-05-29T03:10:05.978Z,4
2017-05-29T03:11:05.921Z,4
2017-05-29T03:12:05.851Z,4
2017-05-29T03:13:05.816Z,4
2017-05-29T03:14:06.031Z,4
2017-05-29T03:15:05.363Z,4
2017-05-29T03:16:05.915Z,4
2017-05-29T03:17:05.862Z,8
2017-05-29T03:18:05.795Z,8
2017-05-29T03:19:05.728Z,4
2017-05-29T03:20:05.084Z,4
2017-05-29T03:21:05.298Z,8
2017-05-29T03:22:04.939Z,8
2017-05-29T03:23:05.471Z,8
2017-05-29T03:24:05.419Z,8
2017-05-29T03:25:05.343Z,8
2017-05-29T03:26:04.977Z,8
2017-05-29T03:27:04.944Z,8
2017-05-29T03:28:04.861Z,8
2017-05-29T03:29:05.097Z,12
2017-05-29T03:30:04.846Z,12
2017-05-29T03:31:04.967Z,8
2017-05-29T03:32:04.931Z,8
2017-05-29T03:33:04.559Z,12
2017-05-29T03:34:04.734Z,12
2017-05-29T03:35:04.719Z,12
2017-05-29T03:36:04.662Z,12
2017-05-29T03:37:04.595Z,12
2017-05-29T03:38:04.540Z,12
2017-05-29T03:39:04.196Z,16
2017-05-29T03:40:04.116Z,16
2017-05-29T03:41:04.048Z,12
2017-05-29T03:42:04.292Z,16
2017-05-29T03:43:04.220Z,20
2017-05-29T03:44:04.162Z,16
2017-05-29T03:45:03.793Z,16
2017-05-29T03:46:03.740Z,16
2017-05-29T03:47:03.689Z,16
2017-05-29T03:48:03.911Z,16
2017-05-29T03:49:03.850Z,16
2017-05-29T03:50:03.513Z,20
2017-05-29T03:51:03.456Z,20
2017-05-29T03:52:03.666Z,24
2017-05-29T03:53:03.607Z,24
2017-05-29T03:54:03.546Z,20
2017-05-29T03:55:03.230Z,20
2017-05-29T03:56:03.438Z,20
2017-05-29T03:57:03.345Z,20
2017-05-29T03:58:03.304Z,24
2017-05-29T03:59:03.233Z,24
2017-05-29T04:00:02.868Z,24
2017-05-29T04:01:02.819Z,24
2017-05-29T04:02:02.792Z,24
2017-05-29T04:03:02.991Z,28
2017-05-29T04:04:02.686Z,28
2017-05-29T04:05:02.578Z,28
2017-05-29T04:06:02.499Z,28
2017-05-29T04:07:02.740Z,28
2017-05-29T04:08:02.664Z,28
2017-05-29T04:09:02.675Z,32
2017-05-29T04:10:02.535Z,32
2017-05-29T04:11:02.481Z,32
2017-05-29T04:12:02.408Z,28
2017-05-29T04:13:02.346Z,32
2017-05-29T04:14:02.282Z,36
2017-05-29T04:15:02.224Z,36
2017-05-29T04:16:02.158Z,36
2017-05-29T04:17:02.106Z,40
2017-05-29T04:18:02.032Z,40
2017-05-29T04:19:01.977Z,40
2017-05-29T04:20:01.925Z,44
2017-05-29T04:21:01.844Z,44
2017-05-29T04:22:01.791Z,44
2017-05-29T04:23:01.732Z,44
2017-05-29T04:24:01.662Z,48
2017-05-29T04:25:01.609Z,48
2017-05-29T04:26:01.535Z,52
2017-05-29T04:27:01.486Z,52
2017-05-29T04:28:01.411Z,56
2017-05-29T04:29:01.346Z,52
2017-05-29T04:30:01.327Z,56
2017-05-29T04:31:00.933Z,56
2017-05-29T04:32:01.162Z,56
2017-05-29T04:33:01.113Z,56
2017-05-29T04:34:01.040Z,56
2017-05-29T04:35:01.037Z,56
2017-05-29T04:36:00.928Z,60
2017-05-29T04:37:00.854Z,56
2017-05-29T04:38:00.799Z,56
2017-05-29T04:39:00.727Z,60
2017-05-29T04:40:00.671Z,60
2017-05-29T04:41:00.597Z,60
2017-05-29T04:42:00.538Z,60
2017-05-29T04:43:00.183Z,64
2017-05-29T04:44:00.410Z,60
2017-05-29T04:45:00.051Z,60
2017-05-29T04:46:00.297Z,60
2017-05-29T04:47:00.233Z,60
2017-05-29T04:47:59.861Z,64
2017-05-29T04:48:59.819Z,64
2017-05-29T04:50:00.041Z,68
2017-05-29T04:50:59.976Z,64
2017-05-29T04:51:59.913Z,68
2017-05-29T04:52:59.853Z,64
2017-05-29T04:53:59.796Z,68
2017-05-29T04:54:59.738Z,68
2017-05-29T04:55:59.360Z,68
2017-05-29T04:56:59.598Z,68
2017-05-29T04:57:59.255Z,72
2017-05-29T04:58:59.474Z,72
2017-05-29T04:59:59.122Z,68
2017-05-29T05:00:59.347Z,68
2017-05-29T05:01:58.987Z,68
2017-05-29T05:02:59.226Z,68
2017-05-29T05:03:58.859Z,72
2017-05-29T05:04:59.096Z,72
2017-05-29T05:05:59.035Z,72
2017-05-29T05:06:58.966Z,72
2017-05-29T05:07:58.914Z,76
2017-05-29T05:08:58.548Z,80
2017-05-29T05:09:58.789Z,80
2017-05-29T05:10:58.725Z,80
2017-05-29T05:11:58.660Z,80
2017-05-29T05:12:58.601Z,80
2017-05-29T05:13:58.535Z,72
2017-05-29T05:14:58.479Z,72
2017-05-29T05:15:58.505Z,60
2017-05-29T05:16:58.344Z,72
2017-05-29T05:17:58.290Z,64
2017-05-29T05:18:58.224Z,76
2017-05-29T05:19:58.162Z,80
2017-05-29T05:20:58.099Z,60
2017-05-29T05:21:57.729Z,60
2017-05-29T05:22:57.670Z,60
2017-05-29T05:23:57.611Z,64
2017-05-29T05:24:57.540Z,72
2017-05-29T05:25:57.477Z,72
2017-05-29T05:26:57.412Z,68
2017-05-29T05:27:57.658Z,68
2017-05-29T05:28:57.589Z,80
2017-05-29T05:29:57.529Z,76
2017-05-29T05:30:57.167Z,80
2017-05-29T05:31:57.102Z,80
2017-05-29T05:32:57.040Z,76
2017-05-29T05:33:56.979Z,72
2017-05-29T05:34:57.215Z,68
2017-05-29T05:35:56.848Z,68
2017-05-29T05:36:57.088Z,76
2017-05-29T05:37:57.028Z,80
2017-05-29T05:38:56.969Z,84
2017-05-29T05:39:56.903Z,88
2017-05-29T05:40:56.839Z,84
2017-05-29T05:41:56.773Z,84
2017-05-29T05:42:56.718Z,84
2017-05-29T05:43:56.647Z,84
2017-05-29T05:44:56.590Z,84
2017-05-29T05:45:56.523Z,84
2017-05-29T05:46:56.462Z,84
2017-05-29T05:47:56.103Z,84
2017-05-29T05:48:56.341Z,84
2017-05-29T05:49:56.273Z,84
2017-05-29T05:50:56.211Z,80
2017-05-29T05:51:56.152Z,88
2017-05-29T05:52:56.083Z,88
2017-05-29T05:53:56.021Z,84
2017-05-29T05:54:55.961Z,88
2017-05-29T05:55:55.295Z,84
2017-05-29T05:56:55.531Z,88
2017-05-29T05:57:55.773Z,84
2017-05-29T05:58:55.714Z,88
2017-05-29T05:59:55.651Z,88
2017-05-29T06:00:55.283Z,84
2017-05-29T06:01:55.216Z,84
2017-05-29T06:02:55.463Z,84
2017-05-29T06:03:55.095Z,80
2017-05-29T06:04:55.333Z,84
2017-05-29T06:05:55.266Z,88
2017-05-29T06:06:55.205Z,88
2017-05-29T06:07:55.144Z,84
2017-05-29T06:08:55.082Z,88
2017-05-29T06:09:55.015Z,96
2017-05-29T06:10:54.957Z,96
2017-05-29T06:11:54.892Z,84
2017-05-29T06:12:54.824Z,96
2017-05-29T06:13:54.770Z,92
2017-05-29T06:14:54.119Z,84
2017-05-29T06:15:54.643Z,84
2017-05-29T06:16:54.273Z,84
2017-05-29T06:17:54.222Z,96
2017-05-29T06:18:54.448Z,80
2017-05-29T06:19:54.391Z,96
2017-05-29T06:20:54.022Z,92
2017-05-29T06:21:54.262Z,72
2017-05-29T06:22:54.198Z,88
2017-05-29T06:23:54.145Z,104
2017-05-29T06:24:54.075Z,100
2017-05-29T06:25:54.026Z,100
2017-05-29T06:26:53.952Z,104
2017-05-29T06:27:53.888Z,104
2017-05-29T06:28:53.820Z,100
2017-05-29T06:29:53.763Z,100
2017-05-29T06:30:53.698Z,100
2017-05-29T06:31:53.710Z,104
2017-05-29T06:32:53.585Z,100
2017-05-29T06:33:53.210Z,104
2017-05-29T06:34:53.450Z,108
2017-05-29T06:35:53.382Z,104
2017-05-29T06:36:53.326Z,108
2017-05-29T06:37:53.260Z,104
2017-05-29T06:38:53.195Z,104
2017-05-29T06:39:53.130Z,100
2017-05-29T06:40:53.065Z,104
2017-05-29T06:41:53.006Z,100
2017-05-29T06:42:52.945Z,104
2017-05-29T06:43:52.884Z,104
2017-05-29T06:44:52.818Z,100
2017-05-29T06:45:52.758Z,96
2017-05-29T06:46:52.687Z,88
2017-05-29T06:47:52.630Z,96
2017-05-29T06:48:52.567Z,92
2017-05-29T06:49:52.500Z,96
2017-05-29T06:50:52.447Z,100
2017-05-29T06:51:52.377Z,96
2017-05-29T06:52:52.314Z,96
2017-05-29T06:53:51.954Z,96
2017-05-29T06:54:51.900Z,96
2017-05-29T06:55:52.126Z,96
2017-05-29T06:56:52.121Z,96
2017-05-29T06:57:52.005Z,96
2017-05-29T06:58:51.936Z,96
2017-05-29T06:59:51.277Z,100
2017-05-29T07:00:51.524Z,92
2017-05-29T07:01:51.745Z,96
2017-05-29T07:02:51.077Z,96
2017-05-29T07:03:51.016Z,96
2017-05-29T07:04:51.563Z,96
2017-05-29T07:05:51.499Z,96
2017-05-29T07:06:51.429Z,100
2017-05-29T07:07:51.085Z,100
2017-05-29T07:08:51.309Z,100
2017-05-29T07:09:51.607Z,100
2017-05-29T07:10:51.181Z,100
2017-05-29T07:11:51.222Z,108
2017-05-29T07:12:51.060Z,104
2017-05-29T07:13:50.998Z,112
2017-05-29T07:14:50.933Z,120
2017-05-29T07:15:50.870Z,124
2017-05-29T07:16:50.802Z,124
2017-05-29T07:17:50.742Z,132
2017-05-29T07:18:50.681Z,124
2017-05-29T07:19:50.636Z,124
2017-05-29T07:20:50.558Z,124
2017-05-29T07:21:50.187Z,124
2017-05-29T07:22:50.429Z,124
2017-05-29T07:23:50.062Z,120
2017-05-29T07:24:50.305Z,124
2017-05-29T07:25:50.234Z,124
2017-05-29T07:26:49.875Z,132
2017-05-29T07:27:50.115Z,132
2017-05-29T07:28:49.442Z,136
2017-05-29T07:29:49.987Z,136
2017-05-29T07:30:49.628Z,136
2017-05-29T07:31:49.864Z,132
2017-05-29T07:32:49.798Z,128
2017-05-29T07:33:49.736Z,120
2017-05-29T07:34:49.371Z,116
2017-05-29T07:35:49.705Z,112
2017-05-29T07:36:49.547Z,112
2017-05-29T07:37:49.488Z,108
2017-05-29T07:38:49.122Z,108
2017-05-29T07:39:49.353Z,108
2017-05-29T07:40:49.442Z,104
2017-05-29T07:41:49.266Z,112
2017-05-29T07:42:48.877Z,104
2017-05-29T07:43:49.119Z,100
2017-05-29T07:44:49.045Z,104
2017-05-29T07:45:49.080Z,100
2017-05-29T07:46:48.630Z,108
2017-05-29T07:47:48.554Z,104
2017-05-29T07:48:48.786Z,104
2017-05-29T07:49:48.735Z,100
2017-05-29T07:50:48.664Z,100
2017-05-29T07:51:48.298Z,100
2017-05-29T07:52:48.255Z,96
2017-05-29T07:53:48.472Z,104
2017-05-29T07:54:48.108Z,96
2017-05-29T07:55:48.344Z,100
2017-05-29T07:56:48.304Z,96
2017-05-29T07:57:47.922Z,92
2017-05-29T07:58:48.166Z,92
2017-05-29T07:59:48.104Z,84
2017-05-29T08:00:47.953Z,88
2017-05-29T08:01:47.670Z,92
2017-05-29T08:02:47.906Z,96
2017-05-29T08:03:47.555Z,88
2017-05-29T08:04:47.476Z,88
2017-05-29T08:05:47.415Z,88
2017-05-29T08:06:47.655Z,92
2017-05-29T08:07:47.594Z,84
2017-05-29T08:08:46.988Z,84
2017-05-29T08:09:47.465Z,84
2017-05-29T08:10:47.408Z,88
2017-05-29T08:11:47.042Z,84
2017-05-29T08:12:47.279Z,88
2017-05-29T08:13:47.214Z,84
2017-05-29T08:14:46.857Z,84
2017-05-29T08:15:47.089Z,80
2017-05-29T08:16:46.718Z,84
2017-05-29T08:17:46.675Z,84
2017-05-29T08:18:46.604Z,84
2017-05-29T08:19:46.837Z,84
2017-05-29T08:20:46.771Z,84
2017-05-29T08:21:46.718Z,84
2017-05-29T08:22:46.650Z,80
2017-05-29T08:23:46.585Z,76
2017-05-29T08:24:46.522Z,80
2017-05-29T08:25:46.509Z,80
2017-05-29T08:26:45.794Z,80
2017-05-29T08:27:46.335Z,76
2017-05-29T08:28:46.275Z,80
2017-05-29T08:29:45.907Z,80
2017-05-29T08:30:46.156Z,80
2017-05-29T08:31:46.085Z,84
2017-05-29T08:32:45.715Z,84
2017-05-29T08:33:45.962Z,80
2017-05-29T08:34:45.591Z,84
2017-05-29T08:35:45.831Z,76
2017-05-29T08:36:45.465Z,80
2017-05-29T08:37:45.709Z,76
2017-05-29T08:38:45.342Z,84
2017-05-29T08:39:45.584Z,80
2017-05-29T08:40:45.521Z,84
2017-05-29T08:41:45.456Z,84
2017-05-29T08:42:45.087Z,88
2017-05-29T08:43:45.334Z,84
2017-05-29T08:44:45.268Z,84
2017-05-29T08:45:45.206Z,80
2017-05-29T08:46:45.146Z,60
2017-05-29T08:47:44.476Z,56
2017-05-29T08:48:45.015Z,80
2017-05-29T08:49:44.655Z,80
2017-05-29T08:50:44.582Z,84
2017-05-29T08:51:44.828Z,84
2017-05-29T08:52:44.765Z,84
2017-05-29T08:53:44.767Z,80
2017-05-29T08:54:44.647Z,80
2017-05-29T08:55:44.587Z,80
2017-05-29T08:56:44.210Z,84
2017-05-29T08:57:44.451Z,88
2017-05-29T08:58:44.388Z,84
2017-05-29T08:59:44.330Z,84
2017-05-29T09:00:44.261Z,84
2017-05-29T09:01:44.207Z,84
2017-05-29T09:02:44.151Z,88
2017-05-29T09:03:44.086Z,88
2017-05-29T09:04:44.013Z,84
2017-05-29T09:05:43.666Z,84
2017-05-29T09:06:43.589Z,88
2017-05-29T09:07:43.826Z,88
2017-05-29T09:08:43.455Z,84
2017-05-29T09:09:43.089Z,92
2017-05-29T09:10:43.641Z,84
2017-05-29T09:11:42.964Z,92
2017-05-29T09:12:43.514Z,88
2017-05-29T09:13:43.445Z,96
2017-05-29T09:14:42.777Z,100
2017-05-29T09:15:42.714Z,96
2017-05-29T09:16:43.250Z,96
2017-05-29T09:17:43.196Z,96
2017-05-29T09:18:43.127Z,92
2017-05-29T09:19:43.066Z,104
2017-05-29T09:20:43.019Z,100
2017-05-29T09:21:42.952Z,112
2017-05-29T09:22:42.877Z,120
2017-05-29T09:23:42.513Z,132
2017-05-29T09:24:42.761Z,88
2017-05-29T09:25:42.698Z,92
2017-05-29T09:26:42.624Z,84
2017-05-29T09:27:42.565Z,80
2017-05-29T09:28:41.956Z,80
2017-05-29T09:29:42.214Z,76
2017-05-29T09:30:42.383Z,88
2017-05-29T09:31:42.023Z,92
2017-05-29T09:32:42.266Z,104
2017-05-29T09:33:41.917Z,100
2017-05-29T09:34:42.128Z,104
2017-05-29T09:35:42.074Z,88
2017-05-29T09:36:41.703Z,88
2017-05-29T09:37:41.942Z,140
2017-05-29T09:38:41.578Z,140
2017-05-29T09:39:41.815Z,140
2017-05-29T09:40:41.147Z,140
2017-05-29T09:41:41.390Z,144
2017-05-29T09:42:41.638Z,144
2017-05-29T09:43:41.566Z,136
2017-05-29T09:44:41.209Z,140
2017-05-29T09:45:41.592Z,144
2017-05-29T09:46:41.415Z,140
2017-05-29T09:47:41.013Z,144
2017-05-29T09:48:41.017Z,148
2017-05-29T09:49:41.200Z,152
2017-05-29T09:50:41.226Z,164
2017-05-29T09:51:40.759Z,164
2017-05-29T09:52:41.013Z,180
2017-05-29T09:53:40.949Z,172
2017-05-29T09:54:40.576Z,172
2017-05-29T09:55:40.863Z,176
2017-05-29T09:56:40.757Z,168
2017-05-29T09:57:40.702Z,168
2017-05-29T09:58:40.618Z,164
2017-05-29T09:59:40.562Z,164
2017-05-29T10:00:40.501Z,180
2017-05-29T10:01:40.135Z,180
2017-05-29T10:02:40.075Z,184
2017-05-29T10:03:40.319Z,188
2017-05-29T10:04:40.258Z,192
2017-05-29T10:05:39.888Z,192
2017-05-29T10:06:40.125Z,192
2017-05-29T10:07:40.059Z,192
2017-05-29T10:08:39.391Z,192
2017-05-29T10:09:39.634Z,192
2017-05-29T10:10:39.880Z,192
2017-05-29T10:11:39.810Z,184
2017-05-29T10:12:39.451Z,188
2017-05-29T10:13:39.690Z,196
2017-05-29T10:14:39.321Z,204
2017-05-29T10:15:39.265Z,212
2017-05-29T10:16:39.195Z,204
2017-05-29T10:17:39.434Z,204
2017-05-29T10:18:39.378Z,204
2017-05-29T10:19:39.317Z,204
2017-05-29T10:20:39.256Z,204
2017-05-29T10:21:39.186Z,204
2017-05-29T10:22:39.127Z,204
2017-05-29T10:23:38.768Z,204
2017-05-29T10:24:38.701Z,196
2017-05-29T10:25:38.642Z,200
2017-05-29T10:26:38.937Z,196
2017-05-29T10:27:38.817Z,188
2017-05-29T10:28:38.749Z,184
2017-05-29T10:29:38.091Z,188
2017-05-29T10:30:38.325Z,196
2017-05-29T10:31:38.263Z,200
2017-05-29T10:32:38.501Z,204
2017-05-29T10:33:38.148Z,208
2017-05-29T10:34:38.376Z,204
2017-05-29T10:35:38.365Z,200
2017-05-29T10:36:37.952Z,196
2017-05-29T10:37:37.886Z,192
2017-05-29T10:38:38.132Z,188
2017-05-29T10:39:38.069Z,188
2017-05-29T10:40:38.013Z,188
2017-05-29T10:41:37.940Z,180
2017-05-29T10:42:37.877Z,180
2017-05-29T10:43:37.814Z,180
2017-05-29T10:44:37.756Z,180
2017-05-29T10:45:37.690Z,180
2017-05-29T10:46:37.634Z,180
2017-05-29T10:47:37.645Z,176
2017-05-29T10:48:37.502Z,172
2017-05-29T10:49:37.139Z,172
2017-05-29T10:50:37.479Z,168
2017-05-29T10:51:37.321Z,168
2017-05-29T10:52:37.255Z,164
2017-05-29T10:53:36.894Z,164
2017-05-29T10:54:37.142Z,156
2017-05-29T10:55:37.269Z,164
2017-05-29T10:56:37.003Z,156
2017-05-29T10:57:36.944Z,160
2017-05-29T10:58:36.884Z,152
2017-05-29T10:59:36.520Z,152
2017-05-29T11:00:36.766Z,152
2017-05-29T11:01:36.395Z,152
2017-05-29T11:02:36.332Z,148
2017-05-29T11:03:36.572Z,152
2017-05-29T11:04:36.541Z,148
2017-05-29T11:05:36.445Z,148
2017-05-29T11:06:36.088Z,144
2017-05-29T11:07:36.021Z,148
2017-05-29T11:08:36.265Z,144
2017-05-29T11:09:35.893Z,140
2017-05-29T11:10:36.141Z,136
2017-05-29T11:11:36.283Z,136
2017-05-29T11:12:36.010Z,132
2017-05-29T11:13:35.949Z,132
2017-05-29T11:14:35.894Z,128
2017-05-29T11:15:35.825Z,128
2017-05-29T11:16:35.764Z,124
2017-05-29T11:17:35.694Z,124
2017-05-29T11:18:35.640Z,120
2017-05-29T11:19:35.590Z,120
2017-05-29T11:20:35.510Z,120
2017-05-29T11:21:35.446Z,120
2017-05-29T11:22:35.086Z,116
2017-05-29T11:23:35.021Z,116
2017-05-29T11:24:34.963Z,120
2017-05-29T11:25:35.202Z,120
2017-05-29T11:26:34.836Z,116
2017-05-29T11:27:34.783Z,116
2017-05-29T11:28:35.013Z,120
2017-05-29T11:29:34.955Z,116
2017-05-29T11:30:34.884Z,116
2017-05-29T11:31:34.833Z,112
2017-05-29T11:32:34.552Z,116
2017-05-29T11:33:34.406Z,116
2017-05-29T11:34:34.641Z,116
2017-05-29T11:35:34.571Z,112
2017-05-29T11:36:34.512Z,112
2017-05-29T11:37:34.147Z,112
2017-05-29T11:38:34.082Z,112
2017-05-29T11:39:34.097Z,108
2017-05-29T11:40:34.261Z,112
2017-05-29T11:41:34.203Z,112
2017-05-29T11:42:34.138Z,112
2017-05-29T11:43:33.470Z,112
2017-05-29T11:44:33.715Z,108
2017-05-29T11:45:33.648Z,108
2017-05-29T11:46:33.593Z,108
2017-05-29T11:47:33.533Z,108
2017-05-29T11:48:33.461Z,104
2017-05-29T11:49:33.453Z,104
2017-05-29T11:50:33.705Z,104
2017-05-29T11:51:33.574Z,108
2017-05-29T11:52:33.511Z,104
2017-05-29T11:53:33.446Z,108
2017-05-29T11:54:33.083Z,108
2017-05-29T11:55:32.716Z,104
2017-05-29T11:56:32.655Z,108
2017-05-29T11:57:33.194Z,108
2017-05-29T11:58:32.832Z,104
2017-05-29T11:59:33.078Z,108
2017-05-29T12:00:32.711Z,108
2017-05-29T12:01:32.657Z,108
2017-05-29T12:02:32.886Z,112
2017-05-29T12:03:32.562Z,112
2017-05-29T12:04:32.466Z,116
2017-05-29T12:05:32.698Z,116
2017-05-29T12:06:32.647Z,112
2017-05-29T12:07:32.571Z,112
2017-05-29T12:08:32.510Z,116
2017-05-29T12:09:32.438Z,112
2017-05-29T12:10:32.384Z,116
2017-05-29T12:11:32.323Z,116
2017-05-29T12:12:32.263Z,112
2017-05-29T12:13:32.202Z,116
2017-05-29T12:14:32.134Z,116
2017-05-29T12:15:32.067Z,116
2017-05-29T12:16:31.709Z,116
2017-05-29T12:17:31.945Z,116
2017-05-29T12:18:31.589Z,116
2017-05-29T12:19:31.822Z,116
2017-05-29T12:20:31.704Z,120
2017-05-29T12:21:31.108Z,116
2017-05-29T12:22:31.028Z,120
2017-05-29T12:23:31.570Z,124
2017-05-29T12:24:31.207Z,128
2017-05-29T12:25:31.154Z,124
2017-05-29T12:26:31.081Z,128
2017-05-29T12:27:31.023Z,124
2017-05-29T12:28:31.252Z,124
2017-05-29T12:29:31.197Z,124
2017-05-29T12:30:31.143Z,120
2017-05-29T12:31:31.070Z,120
2017-05-29T12:32:31.006Z,124
2017-05-29T12:33:30.946Z,120
2017-05-29T12:34:30.276Z,120
2017-05-29T12:35:30.866Z,124
2017-05-29T12:36:30.452Z,124
2017-05-29T12:37:30.685Z,124
2017-05-29T12:38:30.322Z,128
2017-05-29T12:39:30.265Z,128
2017-05-29T12:40:29.908Z,132
2017-05-29T12:41:29.836Z,132
2017-05-29T12:42:30.381Z,128
2017-05-29T12:43:30.322Z,132
2017-05-29T12:44:30.247Z,132
2017-05-29T12:45:30.189Z,136
2017-05-29T12:46:30.127Z,140
2017-05-29T12:47:29.775Z,140
2017-05-29T12:48:29.703Z,136
2017-05-29T12:49:29.949Z,80
2017-05-29T12:50:29.874Z,64
2017-05-29T12:51:29.510Z,80
2017-05-29T12:52:29.762Z,100
2017-05-29T12:53:29.691Z,76
2017-05-29T12:54:29.327Z,64
2017-05-29T12:55:29.569Z,72
2017-05-29T12:56:29.507Z,92
2017-05-29T12:57:29.442Z,76
2017-05-29T12:58:29.076Z,68
2017-05-29T12:59:29.013Z,68
2017-05-29T13:00:29.257Z,72
2017-05-29T13:01:29.195Z,112
2017-05-29T13:02:28.954Z,112
2017-05-29T13:03:28.808Z,124
2017-05-29T13:04:29.002Z,152
2017-05-29T13:05:28.950Z,132
2017-05-29T13:06:28.880Z,92
2017-05-29T13:07:28.817Z,116
2017-05-29T13:08:28.751Z,140
2017-05-29T13:09:28.688Z,112
2017-05-29T13:10:28.629Z,156
2017-05-29T13:11:28.257Z,140
2017-05-29T13:12:28.501Z,156
2017-05-29T13:13:28.135Z,152
2017-05-29T13:14:28.075Z,148
2017-05-29T13:15:28.310Z,148
2017-05-29T13:16:27.947Z,148
2017-05-29T13:17:27.890Z,148
2017-05-29T13:18:27.822Z,148
2017-05-29T13:19:27.815Z,148
2017-05-29T13:20:27.698Z,144
2017-05-29T13:21:27.940Z,140
2017-05-29T13:22:27.574Z,140
2017-05-29T13:23:27.811Z,140
2017-05-29T13:24:27.445Z,136
2017-05-29T13:25:27.394Z,136
2017-05-29T13:26:27.626Z,132
2017-05-29T13:27:27.257Z,132
2017-05-29T13:28:27.198Z,132
2017-05-29T13:29:27.432Z,132
2017-05-29T13:30:27.073Z,128
2017-05-29T13:31:27.012Z,128
2017-05-29T13:32:27.250Z,128
2017-05-29T13:33:26.597Z,124
2017-05-29T13:34:27.120Z,120
2017-05-29T13:35:27.062Z,120
2017-05-29T13:36:26.693Z,120
2017-05-29T13:37:26.937Z,120
2017-05-29T13:38:26.570Z,116
2017-05-29T13:39:26.502Z,116
2017-05-29T13:40:26.450Z,120
2017-05-29T13:41:26.385Z,116
2017-05-29T13:42:26.323Z,116
2017-05-29T13:43:26.258Z,116
2017-05-29T13:44:26.498Z,116
2017-05-29T13:45:26.437Z,116
2017-05-29T13:46:26.371Z,112
2017-05-29T13:47:26.315Z,112
2017-05-29T13:48:26.249Z,108
2017-05-29T13:49:26.184Z,116
2017-05-29T13:50:26.122Z,108
2017-05-29T13:51:26.056Z,108
2017-05-29T13:52:25.694Z,104
2017-05-29T13:53:25.632Z,108
2017-05-29T13:54:25.573Z,104
2017-05-29T13:55:25.508Z,108
2017-05-29T13:56:25.444Z,108
2017-05-29T13:57:25.686Z,108
2017-05-29T13:58:25.320Z,100
2017-05-29T13:59:25.562Z,104
2017-05-29T14:00:25.212Z,100
2017-05-29T14:01:25.140Z,100
2017-05-29T14:02:25.381Z,100
2017-05-29T14:03:25.314Z,104
2017-05-29T14:04:25.249Z,96
2017-05-29T14:05:24.895Z,96
2017-05-29T14:06:24.831Z,96
2017-05-29T14:07:25.075Z,96
2017-05-29T14:08:25.002Z,96
2017-05-29T14:09:24.943Z,92
2017-05-29T14:10:24.877Z,96
2017-05-29T14:11:24.819Z,80